createdAt,value
2022-11-12T00:01:00.852Z,-58
2022-11-12T00:03:27.333Z,-61
2022-11-12T00:05:54.241Z,-59
2022-11-12T00:08:21.461Z,-58
2022-11-12T00:10:49.374Z,-60
2022-11-12T00:13:16.175Z,-59
2022-11-12T00:15:42.757Z,-62
2022-11-12T00:18:09.792Z,-58
2022-11-12T00:20:36.498Z,-61
2022-11-12T00:23:04.073Z,-60
2022-11-12T00:25:31.328Z,-61
2022-11-12T00:28:03.077Z,-58
2022-11-12T00:30:29.588Z,-60
2022-11-12T00:32:56.208Z,-59
2022-11-12T00:35:22.836Z,-59
2022-11-12T00:37:54.920Z,-61
2022-11-12T00:40:21.595Z,-59
2022-11-12T00:42:48.105Z,-62
2022-11-12T00:45:14.697Z,-59
2022-11-12T00:47:41.261Z,-62
2022-11-12T00:50:08.371Z,-61
2022-11-12T00:52:34.884Z,-61
2022-11-12T00:55:01.617Z,-59
2022-11-12T00:57:28.162Z,-62
2022-11-12T00:59:54.652Z,-60
2022-11-12T01:02:22.311Z,-60
2022-11-12T01:04:48.862Z,-61
2022-11-12T01:07:16.458Z,-60
2022-11-12T01:09:42.994Z,-62
2022-11-12T01:12:09.534Z,-61
2022-11-12T01:14:36.311Z,-61
2022-11-12T01:17:02.919Z,-62
2022-11-12T01:19:29.394Z,-60
2022-11-12T01:21:55.898Z,-61
2022-11-12T01:24:22.445Z,-59
2022-11-12T01:26:49.039Z,-61
2022-11-12T01:29:15.520Z,-59
2022-11-12T01:31:42.153Z,-61
2022-11-12T01:34:09.666Z,-60
2022-11-12T01:36:38.840Z,-62
2022-11-12T01:39:07.113Z,-59
2022-11-12T01:41:36.866Z,-58
2022-11-12T01:44:07.152Z,-63
2022-11-12T01:46:37.369Z,-60
2022-11-12T01:49:08.940Z,-59
2022-11-12T01:51:42.372Z,-59
2022-11-12T01:54:13.393Z,-61
2022-11-12T01:56:42.496Z,-60
2022-11-12T01:59:17.191Z,-60
2022-11-12T02:01:43.725Z,-58
2022-11-12T02:04:11.244Z,-59
2022-11-12T02:06:39.630Z,-59
2022-11-12T02:09:06.184Z,-61
2022-11-12T02:11:32.675Z,-59
2022-11-12T02:14:01.133Z,-60
2022-11-12T02:16:37.134Z,-60
2022-11-12T02:19:06.044Z,-60
2022-11-12T02:21:32.889Z,-59
2022-11-12T02:24:22.612Z,-60
2022-11-12T02:26:53.017Z,-60
2022-11-12T02:29:19.695Z,-62
2022-11-12T02:31:46.202Z,-60
2022-11-12T02:34:13.095Z,-60
2022-11-12T02:36:39.626Z,-62
2022-11-12T02:39:06.590Z,-59
2022-11-12T02:41:33.066Z,-60
2022-11-12T02:43:59.625Z,-60
2022-11-12T02:46:26.143Z,-60
2022-11-12T02:48:52.684Z,-59
2022-11-12T02:51:19.361Z,-60
2022-11-12T02:53:45.856Z,-60
2022-11-12T02:56:12.336Z,-60
2022-11-12T02:58:38.872Z,-60
2022-11-12T03:01:06.636Z,-60
2022-11-12T03:03:33.148Z,-60
2022-11-12T03:06:01.274Z,-60
2022-11-12T03:08:28.633Z,-59
2022-11-12T03:10:55.421Z,-60
2022-11-12T03:13:21.986Z,-61
2022-11-12T03:15:49.110Z,-61
2022-11-12T03:18:17.015Z,-60
2022-11-12T03:20:43.818Z,-60
2022-11-12T03:23:17.674Z,-58
2022-11-12T03:25:46.946Z,-60
2022-11-12T03:28:19.826Z,-60
2022-11-12T03:30:46.604Z,-60
2022-11-12T03:33:17.505Z,-60
2022-11-12T03:35:44.336Z,-60
2022-11-12T03:38:17.174Z,-60
2022-11-12T03:40:46.519Z,-60
2022-11-12T03:43:20.838Z,-59
2022-11-12T03:45:50.858Z,-61
2022-11-12T03:48:17.604Z,-60
2022-11-12T03:50:47.513Z,-60
2022-11-12T03:53:17.155Z,-60
2022-11-12T03:55:44.932Z,-61
2022-11-12T03:58:11.737Z,-61
2022-11-12T04:00:43.930Z,-61
2022-11-12T04:03:14.321Z,-60
2022-11-12T04:06:01.957Z,-60
2022-11-12T04:08:36.894Z,-61
2022-11-12T04:11:14.221Z,-60
2022-11-12T04:13:46.855Z,-60
2022-11-12T04:16:38.521Z,-60
2022-11-12T04:19:33.463Z,-60
2022-11-12T04:22:13.686Z,-61
2022-11-12T04:25:01.519Z,-60
2022-11-12T04:27:32.924Z,-61
2022-11-12T04:30:17.585Z,-61
2022-11-12T04:32:55.315Z,-60
2022-11-12T04:35:25.812Z,-61
2022-11-12T04:37:52.599Z,-59
2022-11-12T04:40:43.970Z,-59
2022-11-12T04:43:36.736Z,-60
2022-11-12T04:46:12.573Z,-61
2022-11-12T04:48:41.877Z,-60
2022-11-12T04:51:29.708Z,-60
2022-11-12T04:53:56.439Z,-58
2022-11-12T04:56:25.938Z,-59
2022-11-12T04:58:58.020Z,-58
2022-11-12T05:01:27.881Z,-59
2022-11-12T05:04:00.748Z,-60
2022-11-12T05:06:46.283Z,-60
2022-11-12T05:09:18.316Z,-59
2022-11-12T05:11:47.264Z,-60
2022-11-12T05:14:18.910Z,-60
2022-11-12T05:16:51.344Z,-60
2022-11-12T05:19:22.973Z,-60
2022-11-12T05:22:42.252Z,-60
2022-11-12T05:25:07.926Z,-59
2022-11-12T05:27:35.656Z,-59
2022-11-12T05:30:12.671Z,-59
2022-11-12T05:32:42.037Z,-60
2022-11-12T05:35:09.430Z,-59
2022-11-12T05:37:40.916Z,-59
2022-11-12T05:40:10.957Z,-60
2022-11-12T05:42:40.711Z,-59
2022-11-12T05:45:09.304Z,-60
2022-11-12T05:47:36.085Z,-60
2022-11-12T05:50:05.755Z,-59
2022-11-12T05:52:38.938Z,-60
2022-11-12T05:55:19.708Z,-59
2022-11-12T05:57:52.732Z,-60
2022-11-12T06:00:24.048Z,-60
2022-11-12T06:02:50.870Z,-59
2022-11-12T06:05:19.949Z,-61
2022-11-12T06:08:12.435Z,-60
2022-11-12T06:10:52.695Z,-60
2022-11-12T06:13:24.278Z,-60
2022-11-12T06:15:55.029Z,-59
2022-11-12T06:18:23.304Z,-59
2022-11-12T06:21:10.202Z,-59
2022-11-12T06:23:37.119Z,-60
2022-11-12T06:26:05.526Z,-59
2022-11-12T06:28:33.486Z,-60
2022-11-12T06:31:02.659Z,-59
2022-11-12T06:33:29.281Z,-59
2022-11-12T06:36:03.119Z,-60
2022-11-12T06:38:31.263Z,-59
2022-11-12T06:40:58.251Z,-60
2022-11-12T06:43:26.312Z,-60
2022-11-12T06:45:52.799Z,-62
2022-11-12T06:48:19.333Z,-60
2022-11-12T06:50:45.891Z,-60
2022-11-12T06:53:12.392Z,-60
2022-11-12T06:55:38.979Z,-60
2022-11-12T06:58:05.474Z,-61
2022-11-12T07:00:32.033Z,-60
2022-11-12T07:02:58.615Z,-60
2022-11-12T07:05:25.173Z,-61
2022-11-12T07:07:51.676Z,-62
2022-11-12T07:10:18.789Z,-59
2022-11-12T07:12:49.078Z,-60
2022-11-12T07:15:19.512Z,-60
2022-11-12T07:17:46.723Z,-59
2022-11-12T07:20:13.496Z,-60
2022-11-12T07:22:40.379Z,-59
2022-11-12T07:25:07.300Z,-61
2022-11-12T07:27:33.809Z,-60
2022-11-12T07:30:00.343Z,-59
2022-11-12T07:32:26.847Z,-60
2022-11-12T07:34:53.524Z,-60
2022-11-12T07:37:19.990Z,-59
2022-11-12T07:39:46.557Z,-60
2022-11-12T07:42:13.231Z,-59
2022-11-12T07:44:39.768Z,-61
2022-11-12T07:47:06.362Z,-60
2022-11-12T07:49:32.896Z,-60
2022-11-12T07:51:59.413Z,-61
2022-11-12T07:54:25.936Z,-59
2022-11-12T07:56:52.477Z,-62
2022-11-12T07:59:19.070Z,-61
2022-11-12T08:01:45.653Z,-60
2022-11-12T08:04:12.696Z,-59
2022-11-12T08:06:39.420Z,-61
2022-11-12T08:09:08.375Z,-60
2022-11-12T08:11:35.105Z,-61
2022-11-12T08:14:02.034Z,-61
2022-11-12T08:16:28.550Z,-60
2022-11-12T08:18:55.109Z,-56
2022-11-12T08:21:21.769Z,-62
2022-11-12T08:23:48.617Z,-60
2022-11-12T08:26:17.517Z,-57
2022-11-12T08:28:44.347Z,-61
2022-11-12T08:31:12.921Z,-58
2022-11-12T08:33:40.107Z,-58
2022-11-12T08:36:09.082Z,-62
2022-11-12T08:38:36.574Z,-59
2022-11-12T08:41:05.276Z,-57
2022-11-12T08:43:31.789Z,-57
2022-11-12T08:46:00.201Z,-57
2022-11-12T08:48:27.758Z,-60
2022-11-12T08:50:55.068Z,-62
2022-11-12T08:53:23.622Z,-57
2022-11-12T08:55:54.330Z,-56
2022-11-12T08:58:21.826Z,-58
2022-11-12T09:00:50.003Z,-56
2022-11-12T09:03:19.219Z,-60
2022-11-12T09:05:46.062Z,-59
2022-11-12T09:08:15.458Z,-60
2022-11-12T09:10:42.108Z,-58
2022-11-12T09:13:08.960Z,-65
2022-11-12T09:15:38.386Z,-64
2022-11-12T09:18:07.726Z,-64
2022-11-12T09:20:34.597Z,-65
2022-11-12T09:23:04.231Z,-63
2022-11-12T09:25:30.758Z,-60
2022-11-12T09:27:57.740Z,-66
2022-11-12T09:30:24.491Z,-58
2022-11-12T09:32:57.907Z,-61
2022-11-12T09:35:24.493Z,-62
2022-11-12T09:37:51.035Z,-58
2022-11-12T09:40:19.915Z,-60
2022-11-12T09:42:55.105Z,-62
2022-11-12T09:45:29.905Z,-62
2022-11-12T09:48:02.385Z,-63
2022-11-12T09:50:40.956Z,-60
2022-11-12T09:53:27.437Z,-60
2022-11-12T09:55:54.375Z,-61
2022-11-12T09:58:20.878Z,-62
2022-11-12T10:01:01.730Z,-62
2022-11-12T10:03:52.615Z,-60
2022-11-12T10:06:33.154Z,-62
2022-11-12T10:09:13.471Z,-62
2022-11-12T10:12:31.866Z,-63
2022-11-12T10:15:39.231Z,-62
2022-11-12T10:18:16.237Z,-61
2022-11-12T10:21:01.834Z,-62
2022-11-12T10:23:36.930Z,-63
2022-11-12T10:26:13.785Z,-64
2022-11-12T10:28:47.037Z,-61
2022-11-12T10:31:17.043Z,-62
2022-11-12T10:33:43.673Z,-62
2022-11-12T10:36:26.667Z,-63
2022-11-12T10:38:54.933Z,-62
2022-11-12T10:41:31.093Z,-65
2022-11-12T10:44:00.790Z,-65
2022-11-12T10:46:39.048Z,-60
2022-11-12T10:49:08.195Z,-65
2022-11-12T10:51:37.587Z,-62
2022-11-12T10:54:26.569Z,-62
2022-11-12T10:56:55.597Z,-64
2022-11-12T10:59:24.472Z,-62
2022-11-12T11:01:59.491Z,-61
2022-11-12T11:04:32.002Z,-62
2022-11-12T11:07:03.077Z,-67
2022-11-12T11:09:30.555Z,-64
2022-11-12T11:11:57.474Z,-64
2022-11-12T11:14:23.998Z,-64
2022-11-12T11:16:59.888Z,-63
2022-11-12T11:19:34.293Z,-64
2022-11-12T11:22:29.132Z,-61
2022-11-12T11:25:27.855Z,-61
2022-11-12T11:28:13.038Z,-63
2022-11-12T11:30:52.078Z,-61
2022-11-12T11:33:43.995Z,-61
2022-11-12T11:36:16.175Z,-62
2022-11-12T11:39:15.185Z,-62
2022-11-12T11:41:58.050Z,-62
2022-11-12T11:44:39.109Z,-63
2022-11-12T11:47:21.254Z,-63
2022-11-12T11:49:53.829Z,-62
2022-11-12T11:52:41.882Z,-63
2022-11-12T11:55:42.108Z,-63
2022-11-12T11:58:30.357Z,-63
2022-11-12T12:01:18.764Z,-63
2022-11-12T12:04:13.026Z,-65
2022-11-12T12:06:59.794Z,-62
2022-11-12T12:09:26.667Z,-64
2022-11-12T12:12:18.806Z,-62
2022-11-12T12:15:02.832Z,-63
2022-11-12T12:17:54.664Z,-63
2022-11-12T12:20:27.073Z,-62
2022-11-12T12:23:00.749Z,-61
2022-11-12T12:25:32.159Z,-64
2022-11-12T12:28:10.838Z,-63
2022-11-12T12:30:42.770Z,-63
2022-11-12T12:33:24.499Z,-64
2022-11-12T12:35:56.083Z,-64
2022-11-12T12:38:35.788Z,-63
2022-11-12T12:41:33.216Z,-63
2022-11-12T12:44:05.424Z,-63
2022-11-12T12:46:40.599Z,-59
2022-11-12T12:49:10.964Z,-59
2022-11-12T12:51:37.482Z,-66
2022-11-12T12:54:04.166Z,-59
2022-11-12T12:56:30.663Z,-65
2022-11-12T12:58:58.553Z,-65
2022-11-12T13:01:32.871Z,-65
2022-11-12T13:04:05.222Z,-65
2022-11-12T13:06:35.251Z,-65
2022-11-12T13:09:07.446Z,-65
2022-11-12T13:12:01.814Z,-66
2022-11-12T13:14:31.171Z,-65
2022-11-12T13:17:00.122Z,-63
2022-11-12T13:19:28.970Z,-66
2022-11-12T13:22:17.206Z,-64
2022-11-12T13:25:05.367Z,-64
2022-11-12T13:27:47.173Z,-63
2022-11-12T13:30:13.832Z,-64
2022-11-12T13:32:40.387Z,-63
2022-11-12T13:35:20.647Z,-65
2022-11-12T13:37:51.755Z,-66
2022-11-12T13:40:30.421Z,-64
2022-11-12T13:43:04.974Z,-67
2022-11-12T13:45:35.766Z,-65
2022-11-12T13:48:07.809Z,-64
2022-11-12T13:50:40.289Z,-64
2022-11-12T13:53:10.940Z,-58
2022-11-12T13:55:49.227Z,-64
2022-11-12T13:58:32.314Z,-64
2022-11-12T14:01:01.515Z,-64
2022-11-12T14:03:32.640Z,-66
2022-11-12T14:06:06.208Z,-62
2022-11-12T14:09:03.236Z,-63
2022-11-12T14:11:55.704Z,-67
2022-11-12T14:14:44.036Z,-61
2022-11-12T14:17:26.201Z,-62
2022-11-12T14:20:13.088Z,-62
2022-11-12T14:22:45.027Z,-61
2022-11-12T14:25:19.351Z,-62
2022-11-12T14:27:47.630Z,-65
2022-11-12T14:30:28.328Z,-61
2022-11-12T14:33:00.369Z,-60
2022-11-12T14:35:32.883Z,-60
2022-11-12T14:38:14.339Z,-61
2022-11-12T14:40:47.068Z,-60
2022-11-12T14:43:27.639Z,-60
2022-11-12T14:45:56.414Z,-60
2022-11-12T14:48:22.991Z,-60
2022-11-12T14:50:55.818Z,-59
2022-11-12T14:53:28.944Z,-60
2022-11-12T14:55:56.315Z,-60
2022-11-12T14:58:24.156Z,-60
2022-11-12T15:00:53.678Z,-60
2022-11-12T15:03:23.479Z,-58
2022-11-12T15:06:09.252Z,-62
2022-11-12T15:08:38.641Z,-61
2022-11-12T15:11:21.864Z,-62
2022-11-12T15:13:50.536Z,-63
2022-11-12T15:16:23.910Z,-59
2022-11-12T15:19:05.986Z,-62
2022-11-12T15:21:32.816Z,-60
2022-11-12T15:24:18.316Z,-57
2022-11-12T15:26:47.781Z,-60
2022-11-12T15:29:25.526Z,-58
2022-11-12T15:32:03.185Z,-58
2022-11-12T15:34:31.434Z,-58
2022-11-12T15:37:01.385Z,-62
2022-11-12T15:39:29.340Z,-60
2022-11-12T15:42:06.459Z,-60
2022-11-12T15:44:36.889Z,-59
2022-11-12T15:47:04.609Z,-61
2022-11-12T15:49:31.204Z,-61
2022-11-12T15:51:57.695Z,-64
2022-11-12T15:54:24.205Z,-61
2022-11-12T15:56:50.884Z,-60
2022-11-12T15:59:18.439Z,-61
2022-11-12T16:01:45.151Z,-60
2022-11-12T16:04:13.358Z,-58
2022-11-12T16:06:39.944Z,-60
2022-11-12T16:09:06.661Z,-59
2022-11-12T16:11:36.115Z,-59
2022-11-12T16:14:14.013Z,-59
2022-11-12T16:16:40.670Z,-61
2022-11-12T16:19:14.538Z,-62
2022-11-12T16:21:41.361Z,-62
2022-11-12T16:24:08.294Z,-63
2022-11-12T16:26:35.995Z,-60
2022-11-12T16:29:04.036Z,-60
2022-11-12T16:31:30.950Z,-59
2022-11-12T16:33:57.431Z,-61
2022-11-12T16:36:23.961Z,-61
2022-11-12T16:38:50.474Z,-60
2022-11-12T16:41:17.070Z,-61
2022-11-12T16:43:43.590Z,-61
2022-11-12T16:46:24.883Z,-61
2022-11-12T16:48:51.571Z,-61
2022-11-12T16:51:20.049Z,-61
2022-11-12T16:53:46.811Z,-60
2022-11-12T16:56:20.733Z,-61
2022-11-12T16:58:48.469Z,-61
2022-11-12T17:01:28.490Z,-60
2022-11-12T17:03:56.498Z,-61
2022-11-12T17:06:24.509Z,-61
2022-11-12T17:08:54.760Z,-61
2022-11-12T17:11:21.256Z,-61
2022-11-12T17:13:47.761Z,-60
2022-11-12T17:16:14.413Z,-60
2022-11-12T17:18:41.015Z,-60
2022-11-12T17:21:16.133Z,-60
2022-11-12T17:23:42.958Z,-60
2022-11-12T17:26:15.367Z,-60
2022-11-12T17:28:42.169Z,-60
2022-11-12T17:31:13.210Z,-60
2022-11-12T17:33:45.591Z,-60
2022-11-12T17:36:15.240Z,-60
2022-11-12T17:38:42.302Z,-60
2022-11-12T17:41:10.135Z,-60
2022-11-12T17:43:37.474Z,-60
2022-11-12T17:46:09.400Z,-60
2022-11-12T17:48:37.729Z,-60
2022-11-12T17:51:14.642Z,-60
2022-11-12T17:53:42.505Z,-60
2022-11-12T17:56:11.448Z,-60
2022-11-12T17:58:38.159Z,-60
2022-11-12T18:01:31.865Z,-61
2022-11-12T18:03:58.813Z,-65
2022-11-12T18:06:28.088Z,-61
2022-11-12T18:08:56.175Z,-59
2022-11-12T18:11:24.519Z,-59
2022-11-12T18:13:51.510Z,-59
2022-11-12T18:16:21.008Z,-60
2022-11-12T18:18:48.361Z,-61
2022-11-12T18:21:15.938Z,-59
2022-11-12T18:23:44.396Z,-60
2022-11-12T18:26:15.580Z,-59
2022-11-12T18:28:42.583Z,-60
2022-11-12T18:31:12.126Z,-60
2022-11-12T18:33:38.891Z,-61
2022-11-12T18:36:08.304Z,-62
2022-11-12T18:38:36.529Z,-61
2022-11-12T18:41:08.695Z,-61
2022-11-12T18:43:39.225Z,-61
2022-11-12T18:46:07.547Z,-61
2022-11-12T18:48:35.744Z,-61
2022-11-12T18:51:09.984Z,-61
2022-11-12T18:53:37.792Z,-60
2022-11-12T18:56:08.348Z,-60
2022-11-12T18:58:35.643Z,-61
2022-11-12T19:01:08.714Z,-61
2022-11-12T19:03:36.909Z,-61
2022-11-12T19:06:05.901Z,-63
2022-11-12T19:08:33.144Z,-60
2022-11-12T19:11:05.808Z,-61
2022-11-12T19:13:33.435Z,-62
2022-11-12T19:16:04.981Z,-63
2022-11-12T19:18:32.138Z,-62
2022-11-12T19:21:07.728Z,-62
2022-11-12T19:23:34.576Z,-60
2022-11-12T19:26:02.790Z,-61
2022-11-12T19:28:30.191Z,-62
2022-11-12T19:30:58.089Z,-61
2022-11-12T19:33:24.691Z,-60
2022-11-12T19:35:51.206Z,-62
2022-11-12T19:38:17.789Z,-61
2022-11-12T19:40:44.297Z,-61
2022-11-12T19:43:10.846Z,-61
2022-11-12T19:45:37.471Z,-61
2022-11-12T19:48:04.540Z,-64
2022-11-12T19:50:33.364Z,-64
2022-11-12T19:53:00.056Z,-63
2022-11-12T19:55:28.596Z,-62
2022-11-12T19:57:55.228Z,-61
2022-11-12T20:00:22.137Z,-61
2022-11-12T20:02:48.648Z,-62
2022-11-12T20:05:15.240Z,-62
2022-11-12T20:07:41.814Z,-63
2022-11-12T20:10:08.762Z,-62
2022-11-12T20:12:36.551Z,-61
2022-11-12T20:15:03.282Z,-77
2022-11-12T20:17:33.273Z,-80
2022-11-12T20:19:59.832Z,-78
2022-11-12T20:22:30.811Z,-78
2022-11-12T20:24:58.977Z,-79
2022-11-12T20:27:25.918Z,-68
2022-11-12T20:29:52.415Z,-68
2022-11-12T20:32:19.269Z,-68
2022-11-12T20:34:46.204Z,-67
2022-11-12T20:37:12.892Z,-68
2022-11-12T20:39:39.435Z,-68
2022-11-12T20:42:06.017Z,-68
2022-11-12T20:44:32.660Z,-68
2022-11-12T20:46:59.175Z,-68
2022-11-12T20:49:25.994Z,-68
2022-11-12T20:51:52.621Z,-67
2022-11-12T20:54:19.134Z,-67
2022-11-12T20:56:45.795Z,-70
2022-11-12T20:59:12.607Z,-70
2022-11-12T21:01:40.921Z,-68
2022-11-12T21:04:07.542Z,-67
2022-11-12T21:06:34.189Z,-66
2022-11-12T21:09:00.858Z,-68
2022-11-12T21:11:27.537Z,-68
2022-11-12T21:13:54.215Z,-68
2022-11-12T21:16:20.905Z,-68
2022-11-12T21:18:47.465Z,-67
2022-11-12T21:21:18.407Z,-68
2022-11-12T21:23:45.705Z,-68
2022-11-12T21:26:22.739Z,-68
2022-11-12T21:28:52.089Z,-68
2022-11-12T21:31:20.077Z,-68
2022-11-12T21:33:53.880Z,-67
2022-11-12T21:36:21.755Z,-67
2022-11-12T21:38:48.741Z,-68
2022-11-12T21:41:20.874Z,-70
2022-11-12T21:43:48.700Z,-67
2022-11-12T21:46:24.374Z,-68
2022-11-12T21:48:55.153Z,-68
2022-11-12T21:51:27.944Z,-67
2022-11-12T21:53:59.926Z,-67
2022-11-12T21:56:27.461Z,-67
2022-11-12T21:59:00.554Z,-68
2022-11-12T22:01:29.701Z,-68
2022-11-12T22:03:58.166Z,-68
2022-11-12T22:06:27.084Z,-67
2022-11-12T22:08:55.901Z,-68
2022-11-12T22:11:23.356Z,-67
2022-11-12T22:13:50.265Z,-67
2022-11-12T22:16:19.557Z,-67
2022-11-12T22:18:48.989Z,-61
2022-11-12T22:21:21.835Z,-59
2022-11-12T22:23:48.753Z,-64
2022-11-12T22:27:14.134Z,-64
2022-11-12T22:29:40.662Z,-63
2022-11-12T22:32:07.261Z,-63
2022-11-12T22:34:33.749Z,-63
2022-11-12T22:37:00.260Z,-64
2022-11-12T22:39:27.259Z,-63
2022-11-12T22:41:53.744Z,-63
2022-11-12T22:44:20.398Z,-63
2022-11-12T22:46:46.968Z,-66
2022-11-12T22:49:13.558Z,-65
2022-11-12T22:51:40.130Z,-66
2022-11-12T22:54:09.520Z,-66
2022-11-12T22:56:36.871Z,-66
2022-11-12T22:59:05.087Z,-66
2022-11-12T23:01:35.514Z,-66
2022-11-12T23:04:05.027Z,-67
2022-11-12T23:06:32.090Z,-65
2022-11-12T23:08:59.556Z,-66
2022-11-12T23:11:26.881Z,-66
2022-11-12T23:13:55.370Z,-70
2022-11-12T23:16:24.731Z,-66
2022-11-12T23:18:52.475Z,-67
2022-11-12T23:21:22.655Z,-67
2022-11-12T23:23:49.738Z,-67
2022-11-12T23:26:19.632Z,-67
2022-11-12T23:28:46.149Z,-66
2022-11-12T23:31:21.880Z,-67
2022-11-12T23:33:50.661Z,-66
2022-11-12T23:36:17.791Z,-67
2022-11-12T23:38:44.849Z,-67
2022-11-12T23:41:14.036Z,-65
2022-11-12T23:43:40.772Z,-66
2022-11-12T23:46:07.374Z,-67
2022-11-12T23:48:33.986Z,-67
2022-11-12T23:51:04.069Z,-66
2022-11-12T23:53:33.147Z,-67
2022-11-12T23:56:00.069Z,-67
2022-11-12T23:58:27.145Z,-67
